createdAt,value
2022-10-15T00:00:48.612Z,1000.30
2022-10-15T00:01:48.721Z,1000.31
2022-10-15T00:02:48.591Z,1000.28
2022-10-15T00:03:48.594Z,1000.24
2022-10-15T00:04:48.574Z,1000.21
2022-10-15T00:05:48.549Z,1000.23
2022-10-15T00:06:48.544Z,1000.20
2022-10-15T00:07:48.543Z,1000.20
2022-10-15T00:08:48.520Z,1000.17
2022-10-15T00:09:48.513Z,1000.11
2022-10-15T00:10:48.523Z,1000.06
2022-10-15T00:11:48.486Z,1000.05
2022-10-15T00:12:48.470Z,1000.06
2022-10-15T00:13:48.475Z,1000.02
2022-10-15T00:14:48.453Z,1000.02
2022-10-15T00:15:48.458Z,1000.02
2022-10-15T00:16:48.442Z,1000.00
2022-10-15T00:17:48.416Z,1000.02
2022-10-15T00:18:48.406Z,1000.00
2022-10-15T00:19:48.417Z,999.96
2022-10-15T00:20:48.383Z,999.99
2022-10-15T00:21:48.413Z,999.99
2022-10-15T00:22:48.367Z,1000.00
2022-10-15T00:23:48.345Z,1000.00
2022-10-15T00:24:48.338Z,1000.04
2022-10-15T00:25:48.349Z,1000.03
2022-10-15T00:26:48.317Z,999.99
2022-10-15T00:27:48.302Z,1000.02
2022-10-15T00:28:48.339Z,1000.04
2022-10-15T00:29:48.278Z,1000.01
2022-10-15T00:30:48.271Z,1000.04
2022-10-15T00:31:48.301Z,1000.05
2022-10-15T00:32:48.249Z,1000.05
2022-10-15T00:33:48.232Z,1000.06
2022-10-15T00:34:48.229Z,1000.10
2022-10-15T00:35:48.220Z,1000.06
2022-10-15T00:36:48.214Z,1000.02
2022-10-15T00:37:48.203Z,1000.01
2022-10-15T00:38:48.205Z,999.97
2022-10-15T00:39:48.210Z,999.92
2022-10-15T00:40:48.167Z,999.89
2022-10-15T00:41:48.165Z,999.85
2022-10-15T00:42:48.131Z,999.82
2022-10-15T00:43:48.132Z,999.83
2022-10-15T00:44:48.125Z,999.85
2022-10-15T00:45:48.132Z,999.81
2022-10-15T00:46:48.105Z,999.86
2022-10-15T00:47:48.231Z,999.91
2022-10-15T00:48:48.085Z,999.93
2022-10-15T00:49:48.073Z,999.97
2022-10-15T00:50:48.074Z,999.93
2022-10-15T00:51:48.045Z,999.96
2022-10-15T00:52:48.036Z,999.88
2022-10-15T00:53:48.013Z,999.85
2022-10-15T00:54:48.003Z,999.90
2022-10-15T00:55:48.002Z,999.85
2022-10-15T00:56:47.991Z,999.82
2022-10-15T00:57:47.971Z,999.85
2022-10-15T00:58:47.972Z,999.82
2022-10-15T00:59:47.951Z,999.75
2022-10-15T01:00:48.039Z,999.76
2022-10-15T01:01:47.927Z,999.78
2022-10-15T01:02:47.933Z,999.77
2022-10-15T01:03:48.068Z,999.83
2022-10-15T01:04:47.916Z,999.80
2022-10-15T01:05:47.884Z,999.87
2022-10-15T01:06:47.872Z,999.88
2022-10-15T01:07:47.866Z,999.90
2022-10-15T01:08:47.854Z,999.94
2022-10-15T01:09:47.845Z,999.96
2022-10-15T01:10:47.835Z,999.95
2022-10-15T01:11:47.818Z,999.92
2022-10-15T01:12:47.808Z,999.89
2022-10-15T01:13:47.793Z,999.93
2022-10-15T01:14:47.791Z,999.97
2022-10-15T01:15:47.772Z,999.98
2022-10-15T01:16:47.758Z,999.96
2022-10-15T01:17:47.754Z,999.97
2022-10-15T01:18:47.740Z,999.90
2022-10-15T01:19:47.762Z,999.90
2022-10-15T01:20:47.717Z,999.88
2022-10-15T01:21:47.713Z,999.89
2022-10-15T01:22:47.692Z,999.89
2022-10-15T01:23:47.699Z,999.86
2022-10-15T01:24:47.683Z,999.82
2022-10-15T01:25:47.665Z,999.84
2022-10-15T01:26:47.654Z,999.85
2022-10-15T01:27:47.640Z,999.87
2022-10-15T01:28:47.679Z,999.91
2022-10-15T01:29:47.621Z,999.89
2022-10-15T01:30:47.612Z,999.92
2022-10-15T01:31:47.601Z,999.88
2022-10-15T01:32:47.612Z,999.87
2022-10-15T01:33:47.602Z,999.91
2022-10-15T01:34:47.573Z,999.86
2022-10-15T01:35:47.573Z,999.87
2022-10-15T01:36:47.540Z,999.83
2022-10-15T01:37:47.543Z,999.80
2022-10-15T01:38:47.556Z,999.82
2022-10-15T01:39:47.525Z,999.82
2022-10-15T01:40:47.519Z,999.81
2022-10-15T01:41:47.484Z,999.83
2022-10-15T01:42:47.484Z,999.83
2022-10-15T01:43:47.464Z,999.87
2022-10-15T01:44:47.467Z,999.86
2022-10-15T01:45:47.453Z,999.90
2022-10-15T01:46:47.462Z,999.96
2022-10-15T01:47:47.462Z,999.97
2022-10-15T01:48:47.411Z,999.94
2022-10-15T01:49:47.394Z,999.96
2022-10-15T01:50:47.386Z,999.97
2022-10-15T01:51:47.389Z,999.94
2022-10-15T01:52:47.358Z,999.93
2022-10-15T01:53:47.361Z,999.95
2022-10-15T01:54:47.352Z,999.94
2022-10-15T01:55:47.331Z,999.96
2022-10-15T01:56:47.325Z,999.95
2022-10-15T01:57:47.301Z,999.97
2022-10-15T01:58:47.304Z,1000.00
2022-10-15T01:59:47.292Z,999.98
2022-10-15T02:00:47.324Z,999.97
2022-10-15T02:01:47.275Z,999.92
2022-10-15T02:02:47.255Z,999.88
2022-10-15T02:03:47.243Z,999.86
2022-10-15T02:04:47.231Z,999.83
2022-10-15T02:05:47.214Z,999.86
2022-10-15T02:06:47.223Z,999.85
2022-10-15T02:07:47.212Z,999.86
2022-10-15T02:08:47.186Z,999.80
2022-10-15T02:09:47.168Z,999.80
2022-10-15T02:10:47.160Z,999.74
2022-10-15T02:11:47.156Z,999.71
2022-10-15T02:12:47.152Z,999.71
2022-10-15T02:13:47.145Z,999.67
2022-10-15T02:14:47.113Z,999.72
2022-10-15T02:15:47.110Z,999.72
2022-10-15T02:16:47.097Z,999.72
2022-10-15T02:17:47.086Z,999.72
2022-10-15T02:18:47.090Z,999.71
2022-10-15T02:19:47.090Z,999.73
2022-10-15T02:20:47.059Z,999.74
2022-10-15T02:21:47.045Z,999.72
2022-10-15T02:22:47.031Z,999.72
2022-10-15T02:23:47.035Z,999.72
2022-10-15T02:24:48.692Z,999.74
2022-10-15T02:25:47.013Z,999.74
2022-10-15T02:26:46.978Z,999.74
2022-10-15T02:27:46.981Z,999.74
2022-10-15T02:28:47.044Z,999.73
2022-10-15T02:29:46.959Z,999.74
2022-10-15T02:30:46.942Z,999.81
2022-10-15T02:31:46.938Z,999.80
2022-10-15T02:32:46.914Z,999.85
2022-10-15T02:33:46.909Z,999.87
2022-10-15T02:34:46.895Z,999.88
2022-10-15T02:35:46.918Z,999.88
2022-10-15T02:36:46.870Z,999.87
2022-10-15T02:37:46.885Z,999.87
2022-10-15T02:38:46.856Z,999.80
2022-10-15T02:39:46.945Z,999.88
2022-10-15T02:40:46.832Z,999.86
2022-10-15T02:41:46.830Z,999.88
2022-10-15T02:42:46.817Z,999.89
2022-10-15T02:43:46.824Z,999.92
2022-10-15T02:44:46.788Z,999.92
2022-10-15T02:45:46.782Z,999.88
2022-10-15T02:46:46.772Z,999.88
2022-10-15T02:47:46.761Z,999.87
2022-10-15T02:48:46.735Z,999.84
2022-10-15T02:49:46.725Z,999.80
2022-10-15T02:50:46.733Z,999.80
2022-10-15T02:51:46.710Z,999.81
2022-10-15T02:52:46.713Z,999.82
2022-10-15T02:53:46.694Z,999.84
2022-10-15T02:54:46.671Z,999.82
2022-10-15T02:55:46.691Z,999.86
2022-10-15T02:56:46.653Z,999.89
2022-10-15T02:57:46.666Z,999.84
2022-10-15T02:58:46.639Z,999.85
2022-10-15T02:59:46.627Z,999.84
2022-10-15T03:00:46.693Z,999.84
2022-10-15T03:01:46.608Z,999.84
2022-10-15T03:02:46.606Z,999.82
2022-10-15T03:03:46.595Z,999.83
2022-10-15T03:04:46.566Z,999.82
2022-10-15T03:05:46.559Z,999.86
2022-10-15T03:06:46.556Z,999.89
2022-10-15T03:07:46.540Z,999.87
2022-10-15T03:08:46.531Z,999.85
2022-10-15T03:09:46.518Z,999.80
2022-10-15T03:10:46.501Z,999.81
2022-10-15T03:11:46.504Z,999.79
2022-10-15T03:12:46.476Z,999.78
2022-10-15T03:13:46.464Z,999.76
2022-10-15T03:14:46.459Z,999.77
2022-10-15T03:15:46.451Z,999.83
2022-10-15T03:16:46.437Z,999.85
2022-10-15T03:17:46.430Z,999.84
2022-10-15T03:18:46.413Z,999.88
2022-10-15T03:19:46.413Z,999.88
2022-10-15T03:20:46.382Z,999.85
2022-10-15T03:21:46.382Z,999.86
2022-10-15T03:22:46.367Z,999.87
2022-10-15T03:23:46.353Z,999.84
2022-10-15T03:24:46.358Z,999.85
2022-10-15T03:25:46.338Z,999.82
2022-10-15T03:26:46.318Z,999.81
2022-10-15T03:27:46.332Z,999.77
2022-10-15T03:28:46.300Z,999.72
2022-10-15T03:29:46.288Z,999.71
2022-10-15T03:30:46.286Z,999.74
2022-10-15T03:31:46.267Z,999.73
2022-10-15T03:32:46.253Z,999.73
2022-10-15T03:33:46.254Z,999.78
2022-10-15T03:34:46.228Z,999.80
2022-10-15T03:35:46.220Z,999.78
2022-10-15T03:36:46.222Z,999.79
2022-10-15T03:37:46.201Z,999.82
2022-10-15T03:38:46.188Z,999.80
2022-10-15T03:39:46.189Z,999.82
2022-10-15T03:40:46.160Z,999.85
2022-10-15T03:41:46.161Z,999.87
2022-10-15T03:42:46.153Z,999.89
2022-10-15T03:43:46.161Z,999.93
2022-10-15T03:44:46.121Z,999.92
2022-10-15T03:45:46.118Z,999.95
2022-10-15T03:46:46.119Z,999.98
2022-10-15T03:47:46.098Z,999.98
2022-10-15T03:48:46.084Z,999.96
2022-10-15T03:49:46.063Z,999.97
2022-10-15T03:50:46.086Z,999.97
2022-10-15T03:51:46.041Z,1000.01
2022-10-15T03:52:46.029Z,1000.04
2022-10-15T03:53:46.025Z,1000.06
2022-10-15T03:54:46.008Z,1000.05
2022-10-15T03:55:45.996Z,1000.02
2022-10-15T03:56:46.015Z,1000.00
2022-10-15T03:57:45.974Z,999.98
2022-10-15T03:58:46.007Z,999.97
2022-10-15T03:59:45.984Z,999.94
2022-10-15T04:00:45.988Z,999.98
2022-10-15T04:01:45.950Z,999.95
2022-10-15T04:02:45.915Z,999.97
2022-10-15T04:03:45.924Z,999.95
2022-10-15T04:04:45.908Z,999.92
2022-10-15T04:05:48.991Z,999.91
2022-10-15T04:06:46.878Z,999.91
2022-10-15T04:07:45.866Z,999.92
2022-10-15T04:08:45.907Z,999.94
2022-10-15T04:09:45.882Z,999.94
2022-10-15T04:10:45.838Z,999.93
2022-10-15T04:11:45.829Z,999.92
2022-10-15T04:12:45.803Z,999.89
2022-10-15T04:13:45.804Z,999.91
2022-10-15T04:14:45.793Z,999.94
2022-10-15T04:15:45.818Z,999.96
2022-10-15T04:16:45.769Z,999.91
2022-10-15T04:17:45.804Z,999.84
2022-10-15T04:18:45.758Z,999.80
2022-10-15T04:19:45.747Z,999.82
2022-10-15T04:20:45.727Z,999.82
2022-10-15T04:21:45.707Z,999.80
2022-10-15T04:22:45.701Z,999.83
2022-10-15T04:23:45.689Z,999.89
2022-10-15T04:24:45.694Z,999.92
2022-10-15T04:25:45.698Z,999.88
2022-10-15T04:26:45.651Z,999.83
2022-10-15T04:27:45.671Z,999.74
2022-10-15T04:28:45.729Z,999.70
2022-10-15T04:29:45.625Z,999.68
2022-10-15T04:30:45.620Z,999.69
2022-10-15T04:31:45.618Z,999.62
2022-10-15T04:32:45.608Z,999.58
2022-10-15T04:33:45.578Z,999.59
2022-10-15T04:34:45.563Z,999.54
2022-10-15T04:35:45.570Z,999.58
2022-10-15T04:36:45.550Z,999.54
2022-10-15T04:37:45.546Z,999.57
2022-10-15T04:38:45.525Z,999.63
2022-10-15T04:39:45.505Z,999.66
2022-10-15T04:40:45.506Z,999.64
2022-10-15T04:41:45.498Z,999.63
2022-10-15T04:42:45.486Z,999.70
2022-10-15T04:43:45.475Z,999.69
2022-10-15T04:44:45.462Z,999.75
2022-10-15T04:45:45.464Z,999.83
2022-10-15T04:46:45.445Z,999.88
2022-10-15T04:47:45.457Z,999.84
2022-10-15T04:48:45.414Z,999.85
2022-10-15T04:49:45.404Z,999.83
2022-10-15T04:50:45.389Z,999.86
2022-10-15T04:51:45.386Z,999.84
2022-10-15T04:52:45.397Z,999.83
2022-10-15T04:53:45.365Z,999.81
2022-10-15T04:54:45.340Z,999.85
2022-10-15T04:55:45.343Z,999.88
2022-10-15T04:56:45.324Z,999.89
2022-10-15T04:57:45.312Z,999.91
2022-10-15T04:58:45.307Z,999.89
2022-10-15T04:59:45.283Z,999.90
2022-10-15T05:00:45.283Z,999.93
2022-10-15T05:01:45.331Z,999.92
2022-10-15T05:02:45.277Z,999.92
2022-10-15T05:03:45.483Z,999.92
2022-10-15T05:04:45.281Z,999.90
2022-10-15T05:05:45.251Z,999.92
2022-10-15T05:06:45.226Z,999.87
2022-10-15T05:07:45.214Z,999.90
2022-10-15T05:08:45.182Z,999.88
2022-10-15T05:09:46.469Z,999.86
2022-10-15T05:10:45.201Z,999.88
2022-10-15T05:11:45.168Z,999.86
2022-10-15T05:12:45.155Z,999.84
2022-10-15T05:13:45.150Z,999.86
2022-10-15T05:14:45.130Z,999.93
2022-10-15T05:15:45.135Z,999.90
2022-10-15T05:16:45.122Z,999.92
2022-10-15T05:17:45.084Z,999.91
2022-10-15T05:18:45.088Z,999.92
2022-10-15T05:19:45.126Z,999.91
2022-10-15T05:20:45.094Z,999.89
2022-10-15T05:21:45.106Z,999.94
2022-10-15T05:22:45.059Z,999.99
2022-10-15T05:23:45.029Z,1000.02
2022-10-15T05:24:45.036Z,1000.01
2022-10-15T05:25:45.009Z,1000.03
2022-10-15T05:26:44.995Z,1000.03
2022-10-15T05:27:44.994Z,1000.00
2022-10-15T05:28:45.047Z,1000.05
2022-10-15T05:29:44.981Z,1000.06
2022-10-15T05:30:44.989Z,1000.06
2022-10-15T05:31:44.935Z,1000.10
2022-10-15T05:32:44.931Z,1000.09
2022-10-15T05:33:45.502Z,1000.10
2022-10-15T05:34:44.931Z,1000.10
2022-10-15T05:35:44.913Z,1000.12
2022-10-15T05:36:44.910Z,1000.08
2022-10-15T05:37:44.870Z,1000.11
2022-10-15T05:38:44.885Z,1000.10
2022-10-15T05:39:44.865Z,1000.13
2022-10-15T05:40:44.875Z,1000.18
2022-10-15T05:41:44.816Z,1000.17
2022-10-15T05:42:45.533Z,1000.14
2022-10-15T05:43:44.853Z,1000.16
2022-10-15T05:44:44.809Z,1000.10
2022-10-15T05:45:44.789Z,1000.15
2022-10-15T05:46:44.830Z,1000.18
2022-10-15T05:47:45.562Z,1000.17
2022-10-15T05:48:44.765Z,1000.19
2022-10-15T05:49:44.745Z,1000.20
2022-10-15T05:50:44.747Z,1000.11
2022-10-15T05:51:44.791Z,1000.06
2022-10-15T05:52:44.742Z,1000.06
2022-10-15T05:53:44.751Z,1000.08
2022-10-15T05:54:44.787Z,1000.10
2022-10-15T05:55:44.669Z,1000.10
2022-10-15T05:56:44.661Z,1000.13
2022-10-15T05:57:45.505Z,1000.17
2022-10-15T05:58:44.645Z,1000.11
2022-10-15T05:59:44.662Z,1000.12
2022-10-15T06:00:44.640Z,1000.13
2022-10-15T06:01:44.732Z,1000.15
2022-10-15T06:02:44.779Z,1000.17
2022-10-15T06:03:45.509Z,1000.21
2022-10-15T06:04:44.597Z,1000.18
2022-10-15T06:05:44.565Z,1000.16
2022-10-15T06:06:44.594Z,1000.14
2022-10-15T06:07:44.636Z,1000.14
2022-10-15T06:08:44.541Z,1000.13
2022-10-15T06:09:44.510Z,1000.11
2022-10-15T06:10:44.512Z,1000.16
2022-10-15T06:11:44.503Z,1000.21
2022-10-15T06:12:44.512Z,1000.23
2022-10-15T06:13:44.473Z,1000.22
2022-10-15T06:14:44.480Z,1000.23
2022-10-15T06:15:44.444Z,1000.21
2022-10-15T06:16:44.435Z,1000.25
2022-10-15T06:17:44.443Z,1000.20
2022-10-15T06:18:44.416Z,1000.22
2022-10-15T06:19:44.408Z,1000.21
2022-10-15T06:20:44.403Z,1000.22
2022-10-15T06:21:44.413Z,1000.16
2022-10-15T06:22:44.382Z,1000.21
2022-10-15T06:23:44.393Z,1000.20
2022-10-15T06:24:44.349Z,1000.20
2022-10-15T06:25:44.328Z,1000.15
2022-10-15T06:26:44.352Z,1000.16
2022-10-15T06:27:44.320Z,1000.19
2022-10-15T06:28:44.375Z,1000.19
2022-10-15T06:29:44.297Z,1000.23
2022-10-15T06:30:44.276Z,1000.24
2022-10-15T06:31:44.291Z,1000.17
2022-10-15T06:32:44.272Z,1000.20
2022-10-15T06:33:44.264Z,1000.19
2022-10-15T06:34:44.235Z,1000.17
2022-10-15T06:35:44.213Z,1000.22
2022-10-15T06:36:44.232Z,1000.22
2022-10-15T06:37:44.204Z,1000.26
2022-10-15T06:38:44.343Z,1000.24
2022-10-15T06:39:44.197Z,1000.32
2022-10-15T06:40:44.158Z,1000.27
2022-10-15T06:41:44.177Z,1000.25
2022-10-15T06:42:44.164Z,1000.27
2022-10-15T06:43:44.168Z,1000.28
2022-10-15T06:44:44.129Z,1000.30
2022-10-15T06:45:44.142Z,1000.27
2022-10-15T06:46:44.121Z,1000.33
2022-10-15T06:47:44.109Z,1000.32
2022-10-15T06:48:44.084Z,1000.35
2022-10-15T06:49:44.069Z,1000.36
2022-10-15T06:50:44.114Z,1000.39
2022-10-15T06:51:44.051Z,1000.42
2022-10-15T06:52:44.029Z,1000.48
2022-10-15T06:53:44.026Z,1000.45
2022-10-15T06:54:44.002Z,1000.46
2022-10-15T06:55:44.043Z,1000.47
2022-10-15T06:56:43.989Z,1000.46
2022-10-15T06:57:43.992Z,1000.49
2022-10-15T06:58:43.958Z,1000.48
2022-10-15T06:59:43.998Z,1000.52
2022-10-15T07:00:43.971Z,1000.54
2022-10-15T07:01:43.932Z,1000.52
2022-10-15T07:02:43.918Z,1000.55
2022-10-15T07:03:43.909Z,1000.50
2022-10-15T07:04:43.928Z,1000.48
2022-10-15T07:05:43.892Z,1000.55
2022-10-15T07:06:43.905Z,1000.57
2022-10-15T07:07:43.863Z,1000.55
2022-10-15T07:08:43.872Z,1000.53
2022-10-15T07:09:43.873Z,1000.52
2022-10-15T07:10:43.846Z,1000.47
2022-10-15T07:11:43.871Z,1000.47
2022-10-15T07:12:43.811Z,1000.46
2022-10-15T07:13:43.799Z,1000.45
2022-10-15T07:14:43.840Z,1000.41
2022-10-15T07:15:43.804Z,1000.33
2022-10-15T07:16:43.785Z,1000.37
2022-10-15T07:17:43.761Z,1000.35
2022-10-15T07:18:43.735Z,1000.36
2022-10-15T07:19:43.739Z,1000.38
2022-10-15T07:20:43.753Z,1000.35
2022-10-15T07:21:43.718Z,1000.34
2022-10-15T07:22:45.535Z,1000.31
2022-10-15T07:23:43.686Z,1000.32
2022-10-15T07:24:43.703Z,1000.30
2022-10-15T07:25:43.690Z,1000.35
2022-10-15T07:26:43.668Z,1000.38
2022-10-15T07:27:43.666Z,1000.42
2022-10-15T07:28:43.691Z,1000.44
2022-10-15T07:29:43.659Z,1000.45
2022-10-15T07:30:43.624Z,1000.44
2022-10-15T07:32:46.371Z,1000.45
2022-10-15T07:33:43.594Z,1000.48
2022-10-15T07:34:43.571Z,1000.41
2022-10-15T07:35:43.589Z,1000.44
2022-10-15T07:36:45.516Z,1000.44
2022-10-15T07:37:43.564Z,1000.48
2022-10-15T07:38:43.531Z,1000.44
2022-10-15T07:39:43.546Z,1000.44
2022-10-15T07:40:45.045Z,1000.51
2022-10-15T07:41:43.545Z,1000.51
2022-10-15T07:42:43.481Z,1000.52
2022-10-15T07:43:44.045Z,1000.52
2022-10-15T07:44:43.478Z,1000.43
2022-10-15T07:45:43.450Z,1000.44
2022-10-15T07:46:44.005Z,1000.44
2022-10-15T07:47:43.462Z,1000.42
2022-10-15T07:48:43.419Z,1000.42
2022-10-15T07:49:43.416Z,1000.38
2022-10-15T07:50:44.029Z,1000.40
2022-10-15T07:51:43.370Z,1000.39
2022-10-15T07:52:43.388Z,1000.40
2022-10-15T07:53:43.355Z,1000.37
2022-10-15T07:54:44.075Z,1000.36
2022-10-15T07:55:43.364Z,1000.37
2022-10-15T07:56:43.353Z,1000.30
2022-10-15T07:57:43.326Z,1000.28
2022-10-15T07:58:43.311Z,1000.26
2022-10-15T07:59:43.320Z,1000.26
2022-10-15T08:00:43.278Z,1000.27
2022-10-15T08:01:45.921Z,1000.24
2022-10-15T08:02:44.253Z,1000.22
2022-10-15T08:03:43.282Z,1000.24
2022-10-15T08:04:43.240Z,1000.20
2022-10-15T08:05:43.275Z,1000.26
2022-10-15T08:06:43.230Z,1000.25
2022-10-15T08:07:43.239Z,1000.20
2022-10-15T08:08:43.199Z,1000.23
2022-10-15T08:09:43.205Z,1000.19
2022-10-15T08:10:44.023Z,1000.19
2022-10-15T08:11:43.177Z,1000.16
2022-10-15T08:12:43.183Z,1000.15
2022-10-15T08:13:43.141Z,1000.12
2022-10-15T08:14:43.135Z,1000.14
2022-10-15T08:15:43.144Z,1000.11
2022-10-15T08:16:43.113Z,1000.16
2022-10-15T08:17:43.117Z,1000.17
2022-10-15T08:18:43.166Z,1000.14
2022-10-15T08:19:43.070Z,1000.15
2022-10-15T08:20:44.016Z,1000.17
2022-10-15T08:21:45.224Z,1000.16
2022-10-15T08:22:43.054Z,1000.14
2022-10-15T08:23:43.046Z,1000.15
2022-10-15T08:24:43.066Z,1000.17
2022-10-15T08:25:43.025Z,1000.16
2022-10-15T08:26:42.997Z,1000.16
2022-10-15T08:27:42.985Z,1000.13
2022-10-15T08:28:43.085Z,1000.07
2022-10-15T08:29:42.971Z,1000.07
2022-10-15T08:30:42.965Z,1000.02
2022-10-15T08:31:42.959Z,1000.04
2022-10-15T08:32:42.945Z,1000.03
2022-10-15T08:33:42.918Z,1000.02
2022-10-15T08:34:42.934Z,1000.02
2022-10-15T08:35:42.944Z,1000.00
2022-10-15T08:36:43.512Z,1000.03
2022-10-15T08:37:44.526Z,1000.02
2022-10-15T08:38:42.854Z,1000.04
2022-10-15T08:39:43.522Z,1000.04
2022-10-15T08:40:42.885Z,1000.05
2022-10-15T08:41:42.839Z,1000.01
2022-10-15T08:42:42.833Z,1000.04
2022-10-15T08:43:42.797Z,1000.01
2022-10-15T08:44:43.563Z,1000.00
2022-10-15T08:45:44.526Z,1000.02
2022-10-15T08:46:42.800Z,1000.03
2022-10-15T08:47:42.778Z,1000.05
2022-10-15T08:48:42.746Z,1000.02
2022-10-15T08:49:42.803Z,999.99
2022-10-15T08:50:43.506Z,999.99
2022-10-15T08:51:42.730Z,999.93
2022-10-15T08:52:42.708Z,999.94
2022-10-15T08:53:42.694Z,999.94
2022-10-15T08:54:42.697Z,999.92
2022-10-15T08:55:42.693Z,999.96
2022-10-15T08:56:42.670Z,999.94
2022-10-15T08:57:42.664Z,999.91
2022-10-15T08:58:42.639Z,999.90
2022-10-15T08:59:42.637Z,999.98
2022-10-15T09:00:42.634Z,999.95
2022-10-15T09:01:42.600Z,1000.00
2022-10-15T09:02:42.625Z,1000.00
2022-10-15T09:03:42.635Z,999.99
2022-10-15T09:04:43.525Z,999.93
2022-10-15T09:05:43.517Z,999.98
2022-10-15T09:06:43.500Z,999.93
2022-10-15T09:07:42.559Z,999.95
2022-10-15T09:08:42.557Z,999.91
2022-10-15T09:09:43.539Z,999.89
2022-10-15T09:10:43.030Z,999.91
2022-10-15T09:11:42.520Z,999.85
2022-10-15T09:12:42.481Z,999.91
2022-10-15T09:13:43.045Z,999.90
2022-10-15T09:14:42.492Z,999.86
2022-10-15T09:15:42.454Z,999.87
2022-10-15T09:16:42.453Z,999.85
2022-10-15T09:17:42.445Z,999.86
2022-10-15T09:18:42.423Z,999.86
2022-10-15T09:19:42.439Z,999.86
2022-10-15T09:20:42.408Z,999.84
2022-10-15T09:21:42.433Z,999.83
2022-10-15T09:22:44.056Z,999.79
2022-10-15T09:23:42.369Z,999.81
2022-10-15T09:24:42.355Z,999.80
2022-10-15T09:25:45.008Z,999.79
2022-10-15T09:26:43.022Z,999.79
2022-10-15T09:27:42.340Z,999.86
2022-10-15T09:28:42.412Z,999.83
2022-10-15T09:29:43.011Z,999.85
2022-10-15T09:30:42.312Z,999.84
2022-10-15T09:31:42.328Z,999.80
2022-10-15T09:32:42.280Z,999.90
2022-10-15T09:33:42.258Z,999.82
2022-10-15T09:34:42.279Z,999.81
2022-10-15T09:35:42.242Z,999.73
2022-10-15T09:36:42.220Z,999.74
2022-10-15T09:37:42.221Z,999.69
2022-10-15T09:38:42.203Z,999.70
2022-10-15T09:39:42.189Z,999.78
2022-10-15T09:40:42.210Z,999.77
2022-10-15T09:41:42.184Z,999.76
2022-10-15T09:42:42.155Z,999.79
2022-10-15T09:43:42.170Z,999.80
2022-10-15T09:44:43.047Z,999.78
2022-10-15T09:45:42.119Z,999.76
2022-10-15T09:46:42.124Z,999.76
2022-10-15T09:47:42.096Z,999.80
2022-10-15T09:48:42.098Z,999.78
2022-10-15T09:49:42.087Z,999.80
2022-10-15T09:50:42.067Z,999.81
2022-10-15T09:51:42.083Z,999.78
2022-10-15T09:52:42.060Z,999.80
2022-10-15T09:53:42.027Z,999.80
2022-10-15T09:54:42.026Z,999.77
2022-10-15T09:55:42.000Z,999.75
2022-10-15T09:56:42.027Z,999.72
2022-10-15T09:57:41.992Z,999.77
2022-10-15T09:58:41.994Z,999.78
2022-10-15T09:59:42.000Z,999.83
2022-10-15T10:00:41.981Z,999.80
2022-10-15T10:01:41.989Z,999.82
2022-10-15T10:02:42.057Z,999.83
2022-10-15T10:03:41.947Z,999.83
2022-10-15T10:04:41.910Z,999.82
2022-10-15T10:05:41.904Z,999.84
2022-10-15T10:06:41.914Z,999.81
2022-10-15T10:07:41.917Z,999.76
2022-10-15T10:08:41.907Z,999.73
2022-10-15T10:09:41.852Z,999.77
2022-10-15T10:10:44.549Z,999.79
2022-10-15T10:11:41.849Z,999.78
2022-10-15T10:12:41.812Z,999.73
2022-10-15T10:13:41.800Z,999.72
2022-10-15T10:14:41.827Z,999.74
2022-10-15T10:15:41.793Z,999.72
2022-10-15T10:16:41.780Z,999.74
2022-10-15T10:17:41.834Z,999.76
2022-10-15T10:18:41.753Z,999.65
2022-10-15T10:19:41.763Z,999.61
2022-10-15T10:20:41.732Z,999.64
2022-10-15T10:21:41.723Z,999.64
2022-10-15T10:22:41.729Z,999.58
2022-10-15T10:23:41.718Z,999.60
2022-10-15T10:24:41.702Z,999.57
2022-10-15T10:25:41.693Z,999.59
2022-10-15T10:26:41.666Z,999.54
2022-10-15T10:27:41.675Z,999.54
2022-10-15T10:28:44.190Z,999.53
2022-10-15T10:29:41.708Z,999.51
2022-10-15T10:30:41.628Z,999.56
2022-10-15T10:31:41.613Z,999.52
2022-10-15T10:32:41.613Z,999.53
2022-10-15T10:33:41.603Z,999.56
2022-10-15T10:34:41.576Z,999.52
2022-10-15T10:35:41.566Z,999.51
2022-10-15T10:36:44.072Z,999.47
2022-10-15T10:37:41.553Z,999.50
2022-10-15T10:38:41.546Z,999.53
2022-10-15T10:39:41.542Z,999.52
2022-10-15T10:40:41.518Z,999.51
2022-10-15T10:41:41.516Z,999.47
2022-10-15T10:42:41.489Z,999.44
2022-10-15T10:43:41.495Z,999.46
2022-10-15T10:44:41.525Z,999.47
2022-10-15T10:45:41.470Z,999.44
2022-10-15T10:46:41.433Z,999.26
2022-10-15T10:47:41.464Z,999.31
2022-10-15T10:48:41.434Z,999.24
2022-10-15T10:49:41.425Z,999.29
2022-10-15T10:50:41.402Z,999.28
2022-10-15T10:51:41.433Z,999.27
2022-10-15T10:52:41.399Z,999.29
2022-10-15T10:53:41.399Z,999.21
2022-10-15T10:55:41.396Z,999.35
2022-10-15T10:56:41.337Z,999.33
2022-10-15T10:57:41.339Z,999.37
2022-10-15T10:58:41.309Z,999.30
2022-10-15T10:59:41.314Z,999.31
2022-10-15T11:00:41.380Z,999.28
2022-10-15T11:01:41.306Z,999.26
2022-10-15T11:02:41.278Z,999.30
2022-10-15T11:03:41.273Z,999.34
2022-10-15T11:04:41.260Z,999.26
2022-10-15T11:05:41.230Z,999.36
2022-10-15T11:06:41.222Z,999.31
2022-10-15T11:07:41.222Z,999.36
2022-10-15T11:08:41.216Z,999.34
2022-10-15T11:09:41.192Z,999.22
2022-10-15T11:10:41.184Z,999.35
2022-10-15T11:11:41.187Z,999.33
2022-10-15T11:12:41.178Z,999.25
2022-10-15T11:13:41.161Z,999.30
2022-10-15T11:14:41.130Z,999.31
2022-10-15T11:15:41.153Z,999.27
2022-10-15T11:16:41.130Z,999.28
2022-10-15T11:17:41.135Z,999.28
2022-10-15T11:18:41.100Z,999.29
2022-10-15T11:20:05.926Z,999.30
2022-10-15T11:20:56.403Z,999.27
2022-10-15T11:21:42.063Z,999.31
2022-10-15T11:22:41.109Z,999.31
2022-10-15T11:23:41.046Z,999.28
2022-10-15T11:24:49.186Z,999.31
2022-10-15T11:25:42.028Z,999.33
2022-10-15T11:26:51.984Z,999.26
2022-10-15T11:27:42.019Z,999.26
2022-10-15T11:28:41.062Z,999.26
2022-10-15T11:29:40.999Z,999.21
2022-10-15T11:30:40.980Z,999.17
2022-10-15T11:31:49.331Z,999.14
2022-10-15T11:33:05.468Z,999.19
2022-10-15T11:33:41.971Z,999.22
2022-10-15T11:34:40.917Z,999.18
2022-10-15T11:35:52.988Z,999.13
2022-10-15T11:36:41.911Z,999.08
2022-10-15T11:37:40.888Z,999.15
2022-10-15T11:38:40.978Z,999.01
2022-10-15T11:39:40.881Z,999.13
2022-10-15T11:40:40.874Z,999.11
2022-10-15T11:41:40.862Z,999.12
2022-10-15T11:42:40.864Z,999.12
2022-10-15T11:43:40.854Z,999.07
2022-10-15T11:44:40.824Z,999.04
2022-10-15T11:45:40.848Z,999.09
2022-10-15T11:46:44.126Z,999.10
2022-10-15T11:47:41.782Z,999.09
2022-10-15T11:48:40.768Z,999.07
2022-10-15T11:49:40.764Z,999.11
2022-10-15T11:50:40.774Z,999.09
2022-10-15T11:51:40.741Z,999.13
2022-10-15T11:52:40.713Z,999.13
2022-10-15T11:53:40.730Z,999.10
2022-10-15T11:54:40.730Z,999.09
2022-10-15T11:55:40.696Z,999.04
2022-10-15T11:56:40.684Z,999.03
2022-10-15T11:57:40.678Z,999.02
2022-10-15T11:58:40.678Z,998.99
2022-10-15T11:59:40.692Z,998.99
2022-10-15T12:00:40.629Z,999.02
2022-10-15T12:01:40.625Z,999.03
2022-10-15T12:02:40.636Z,999.05
2022-10-15T12:03:40.620Z,999.04
2022-10-15T12:04:40.605Z,999.01
2022-10-15T12:05:40.572Z,999.01
2022-10-15T12:06:40.561Z,998.98
2022-10-15T12:07:40.588Z,999.02
2022-10-15T12:08:40.558Z,998.98
2022-10-15T12:09:40.544Z,998.96
2022-10-15T12:10:40.519Z,998.93
2022-10-15T12:11:40.550Z,998.94
2022-10-15T12:12:40.521Z,998.93
2022-10-15T12:13:40.492Z,998.92
2022-10-15T12:14:40.485Z,998.87
2022-10-15T12:15:40.501Z,998.89
2022-10-15T12:16:40.456Z,998.89
2022-10-15T12:17:40.482Z,998.85
2022-10-15T12:18:40.459Z,998.89
2022-10-15T12:19:40.423Z,998.88
2022-10-15T12:20:40.424Z,998.90
2022-10-15T12:21:40.435Z,998.93
2022-10-15T12:22:40.409Z,998.94